Time;durP1;ratioP1;P1;durP2;ratioP2;P2;SDS_P1;SDS_P2;PMS_P1;PMS_P2;Temp;Humidity;BMP_temperature;BMP_pressure;BME280_temperature;BME280_humidity;BME280_pressure;Samples;Min_cycle;Max_cycle;Signal;HPM_P1;HPM_P2
2023/04/10 00:00:02;;;;;;;15.53;10.37;;;9.40;99.90;;;;;;4972525;28;20625;-74
2023/04/10 00:02:30;;;;;;;16.73;10.67;;;9.40;99.90;;;;;;4974611;28;20670;-75
2023/04/10 00:04:58;;;;;;;20.27;10.53;;;9.40;99.90;;;;;;4974117;28;20193;-74
2023/04/10 00:07:25;;;;;;;21.83;11.00;;;9.40;99.90;;;;;;4972988;28;20248;-75
2023/04/10 00:09:52;;;;;;;18.30;10.80;;;9.40;99.90;;;;;;4972841;28;20201;-74
2023/04/10 00:12:19;;;;;;;18.60;11.60;;;9.40;99.90;;;;;;4973721;28;20529;-74
2023/04/10 00:14:46;;;;;;;19.20;11.33;;;9.30;99.90;;;;;;4972261;28;20320;-75
2023/04/10 00:17:15;;;;;;;18.53;11.13;;;9.30;99.90;;;;;;4975861;28;20197;-75
2023/04/10 00:19:42;;;;;;;19.40;10.80;;;9.30;99.90;;;;;;4971131;28;20676;-76
2023/04/10 00:22:09;;;;;;;18.30;11.67;;;9.30;99.90;;;;;;4972353;28;20234;-75
2023/04/10 00:24:37;;;;;;;20.53;11.47;;;9.30;99.90;;;;;;4973898;28;20315;-77
2023/04/10 00:27:04;;;;;;;18.23;11.97;;;9.30;99.90;;;;;;4972294;28;20198;-77
2023/04/10 00:29:31;;;;;;;21.60;12.57;;;9.20;99.90;;;;;;4972148;28;20204;-77
2023/04/10 00:31:59;;;;;;;22.97;12.13;;;9.20;99.90;;;;;;4972799;28;20200;-77
2023/04/10 00:34:26;;;;;;;19.50;11.73;;;9.20;99.90;;;;;;4972401;28;20240;-76
2023/04/10 00:36:53;;;;;;;23.30;12.30;;;9.20;99.90;;;;;;4972489;28;20667;-75
2023/04/10 00:39:20;;;;;;;20.43;12.03;;;9.10;99.90;;;;;;4972322;28;20201;-72
2023/04/10 00:41:47;;;;;;;20.60;11.70;;;9.10;99.90;;;;;;4973845;28;20528;-73
2023/04/10 00:44:15;;;;;;;19.57;12.37;;;9.10;99.90;;;;;;4972604;28;20689;-74
2023/04/10 00:46:42;;;;;;;24.67;12.67;;;9.10;99.90;;;;;;4972384;28;20205;-76
2023/04/10 00:49:09;;;;;;;20.23;12.23;;;9.00;99.90;;;;;;4972201;28;20205;-73
2023/04/10 00:51:36;;;;;;;21.30;12.33;;;9.10;99.90;;;;;;4973753;28;20194;-76
2023/04/10 00:54:03;;;;;;;19.77;12.23;;;9.00;99.90;;;;;;4972384;28;20225;-76
2023/04/10 00:56:31;;;;;;;19.93;12.10;;;9.00;99.90;;;;;;4971948;28;20552;-74
2023/04/10 00:58:58;;;;;;;21.30;12.70;;;9.00;99.90;;;;;;4973596;28;20213;-72
2023/04/10 01:01:25;;;;;;;18.97;11.77;;;9.00;99.90;;;;;;4972401;28;20228;-72
2023/04/10 01:03:52;;;;;;;19.90;11.90;;;9.00;99.90;;;;;;4972271;28;20248;-72
2023/04/10 01:06:46;;;;;;;19.23;12.23;;;8.90;99.90;;;;;;4971936;28;20194;-72
2023/04/10 01:09:47;;;;;;;19.43;12.40;;;8.90;99.90;;;;;;4958972;28;20567;-76
2023/04/10 01:12:39;;;;;;;20.30;12.80;;;8.90;99.90;;;;;;4953853;29;20204;-72
2023/04/10 01:15:16;;;;;;;25.97;13.33;;;8.80;99.90;;;;;;4953872;28;20224;-72
2023/04/10 01:18:03;;;;;;;22.13;12.63;;;8.90;99.90;;;;;;4952775;29;20716;-71
2023/04/10 01:20:33;;;;;;;20.47;12.60;;;8.90;99.90;;;;;;4961794;28;20213;-72
2023/04/10 01:23:39;;;;;;;21.90;13.50;;;8.90;99.90;;;;;;4971922;28;20293;-71
2023/04/10 01:26:09;;;;;;;21.67;13.07;;;8.80;99.90;;;;;;4968753;28;20186;-72
2023/04/10 01:29:02;;;;;;;22.70;13.23;;;8.80;99.90;;;;;;4953836;28;20674;-71
2023/04/10 01:31:43;;;;;;;21.57;13.47;;;8.80;99.90;;;;;;4952398;29;20202;-71
2023/04/10 01:34:21;;;;;;;25.03;14.10;;;8.80;99.90;;;;;;4952414;29;20232;-72
2023/04/10 01:36:54;;;;;;;22.87;13.60;;;8.70;99.90;;;;;;4970767;28;20213;-72
2023/04/10 01:39:22;;;;;;;21.67;13.30;;;8.70;99.90;;;;;;4971024;28;20197;-72
2023/04/10 01:42:00;;;;;;;25.77;13.57;;;8.70;99.90;;;;;;4971754;28;20644;-74
2023/04/10 01:44:29;;;;;;;24.23;14.17;;;8.70;99.90;;;;;;4972793;28;20560;-74
2023/04/10 01:46:57;;;;;;;24.00;13.77;;;8.70;99.90;;;;;;4971418;28;20220;-74
2023/04/10 01:49:27;;;;;;;23.60;13.70;;;8.60;99.90;;;;;;4971483;28;20248;-73
2023/04/10 01:51:57;;;;;;;25.27;14.03;;;8.60;99.90;;;;;;4971668;28;20208;-74
2023/04/10 01:54:26;;;;;;;22.27;13.87;;;8.60;99.90;;;;;;4971703;28;20226;-73
2023/04/10 01:56:55;;;;;;;21.80;13.90;;;8.50;99.90;;;;;;4971293;28;20202;-73
2023/04/10 01:59:22;;;;;;;23.60;13.97;;;8.50;99.90;;;;;;4971477;28;20292;-73
2023/04/10 02:01:58;;;;;;;25.87;15.03;;;8.50;99.90;;;;;;4971717;28;20194;-73
2023/04/10 02:04:26;;;;;;;23.93;14.17;;;8.50;99.90;;;;;;4971278;28;20189;-74
2023/04/10 02:07:03;;;;;;;24.57;14.70;;;8.60;99.90;;;;;;4962476;28;20240;-73
2023/04/10 02:09:39;;;;;;;25.33;14.60;;;8.60;99.90;;;;;;4952359;29;20212;-74
2023/04/10 02:12:12;;;;;;;20.80;13.43;;;8.60;99.90;;;;;;4964866;28;20240;-74
2023/04/10 02:14:43;;;;;;;22.87;14.67;;;8.70;99.90;;;;;;4971534;28;20590;-74
2023/04/10 02:17:14;;;;;;;23.63;14.40;;;8.60;99.90;;;;;;4971357;28;20197;-73
2023/04/10 02:19:44;;;;;;;23.77;15.17;;;8.60;99.90;;;;;;4970907;28;20229;-73
2023/04/10 02:22:11;;;;;;;24.37;14.87;;;8.60;99.90;;;;;;4971039;28;20212;-73
2023/04/10 02:24:38;;;;;;;30.37;16.70;;;8.50;99.90;;;;;;4971255;28;20229;-74
2023/04/10 02:27:05;;;;;;;27.20;14.57;;;8.50;99.90;;;;;;4971429;28;20672;-74
2023/04/10 02:29:32;;;;;;;24.03;14.70;;;8.50;99.90;;;;;;4971168;28;20266;-74
2023/04/10 02:31:59;;;;;;;29.10;15.70;;;8.50;99.90;;;;;;4975916;28;20292;-74
2023/04/10 02:34:26;;;;;;;25.67;15.60;;;8.50;99.90;;;;;;4979287;28;20255;-72
2023/04/10 02:36:53;;;;;;;25.13;15.10;;;8.50;99.90;;;;;;4971596;28;20216;-74
2023/04/10 02:39:20;;;;;;;24.67;14.50;;;8.50;99.90;;;;;;4955378;28;20640;-74
2023/04/10 02:41:47;;;;;;;22.20;14.53;;;8.50;99.90;;;;;;4971653;28;20205;-76
2023/04/10 02:44:14;;;;;;;22.37;14.07;;;8.50;99.90;;;;;;4970978;28;20205;-76
2023/04/10 02:46:41;;;;;;;24.50;14.47;;;8.50;99.90;;;;;;4970797;28;20648;-73
2023/04/10 02:49:08;;;;;;;26.83;15.37;;;8.40;99.90;;;;;;4971291;28;20836;-75
2023/04/10 02:51:36;;;;;;;22.13;14.40;;;8.40;99.90;;;;;;4972955;28;20200;-76
2023/04/10 02:54:03;;;;;;;24.93;14.30;;;8.50;99.90;;;;;;4974857;28;20231;-78
2023/04/10 02:56:33;;;;;;;22.90;14.40;;;8.50;99.90;;;;;;4974765;28;20204;-75
2023/04/10 02:59:02;;;;;;;24.53;14.40;;;8.40;99.90;;;;;;4974929;28;20632;-73
2023/04/10 03:01:29;;;;;;;24.50;14.47;;;8.40;99.90;;;;;;4974318;28;20201;-77
2023/04/10 03:03:57;;;;;;;26.67;15.47;;;8.40;99.90;;;;;;4975631;28;20217;-77
2023/04/10 03:06:27;;;;;;;27.50;14.37;;;8.30;99.90;;;;;;4974286;28;20205;-76
2023/04/10 03:08:55;;;;;;;23.73;14.40;;;8.30;99.90;;;;;;4974385;28;20220;-72
2023/04/10 03:11:22;;;;;;;21.63;14.13;;;8.20;99.90;;;;;;4974504;28;20293;-76
2023/04/10 03:13:49;;;;;;;24.40;14.60;;;8.20;99.90;;;;;;4974153;28;20596;-74
2023/04/10 03:16:17;;;;;;;25.13;15.17;;;8.20;99.90;;;;;;4975545;28;20595;-77
2023/04/10 03:18:45;;;;;;;24.07;14.97;;;8.20;99.90;;;;;;4973841;28;20222;-72
2023/04/10 03:21:13;;;;;;;24.63;14.63;;;8.30;99.90;;;;;;4974030;28;20198;-79
2023/04/10 03:26:28;;;;;;;21.17;14.53;;;8.30;99.90;;;;;;4949524;29;20215;-78
2023/04/10 03:28:55;;;;;;;24.77;15.00;;;8.30;99.90;;;;;;4937190;28;20205;-77
2023/04/10 03:31:22;;;;;;;27.03;14.60;;;8.30;99.90;;;;;;4951490;29;20209;-77
2023/04/10 03:33:49;;;;;;;21.30;13.63;;;8.30;99.90;;;;;;4951169;29;20199;-77
2023/04/10 03:36:16;;;;;;;23.00;13.03;;;8.30;99.90;;;;;;4951283;29;20199;-77
2023/04/10 03:38:44;;;;;;;22.37;14.03;;;8.30;99.90;;;;;;4935137;29;20653;-78
2023/04/10 03:41:11;;;;;;;20.77;13.83;;;8.40;99.90;;;;;;4936812;29;20672;-77
2023/04/10 03:43:38;;;;;;;22.63;13.87;;;8.40;99.90;;;;;;4936592;29;20702;-79
2023/04/10 03:46:07;;;;;;;25.13;13.73;;;8.40;99.90;;;;;;4935481;29;20269;-78
2023/04/10 03:48:35;;;;;;;21.47;13.40;;;8.30;99.90;;;;;;4936465;29;20195;-79
2023/04/10 03:51:06;;;;;;;20.97;13.63;;;8.10;99.90;;;;;;4937147;29;20214;-78
2023/04/10 03:56:18;;;;;;;23.23;14.27;;;8.30;99.90;;;;;;4982145;23;20245;-76
2023/04/10 03:58:47;;;;;;;21.90;13.90;;;8.20;99.90;;;;;;4974731;28;20197;-79
2023/04/10 04:01:14;;;;;;;24.97;13.83;;;8.30;99.90;;;;;;4988534;23;20212;-77
2023/04/10 04:03:41;;;;;;;23.27;13.80;;;8.30;99.90;;;;;;4971609;28;20298;-76
2023/04/10 04:06:08;;;;;;;21.17;13.27;;;8.30;99.90;;;;;;4972571;28;20194;-77
2023/04/10 04:08:35;;;;;;;23.00;13.60;;;8.30;99.90;;;;;;4974137;28;20551;-77
2023/04/10 04:11:02;;;;;;;21.37;13.33;;;8.40;99.90;;;;;;4972881;28;20189;-75
2023/04/10 04:13:29;;;;;;;21.80;13.47;;;8.40;99.90;;;;;;4973828;28;20239;-77
2023/04/10 04:15:56;;;;;;;23.77;13.67;;;8.30;99.90;;;;;;4974046;28;20774;-77
2023/04/10 04:18:22;;;;;;;22.90;13.10;;;8.30;99.90;;;;;;4973115;28;20223;-78
2023/04/10 04:20:49;;;;;;;22.00;12.93;;;8.30;99.90;;;;;;4973992;28;20654;-77
2023/04/10 04:23:16;;;;;;;20.57;13.27;;;8.30;99.90;;;;;;4976741;28;20259;-76
2023/04/10 04:25:43;;;;;;;19.33;12.53;;;8.30;99.90;;;;;;4992262;28;20299;-76
2023/04/10 04:28:14;;;;;;;19.57;12.43;;;8.30;99.90;;;;;;4976018;28;20654;-78
2023/04/10 04:30:46;;;;;;;19.27;12.13;;;8.30;99.90;;;;;;4991606;28;20544;-76
2023/04/10 04:33:14;;;;;;;22.30;13.80;;;8.40;99.90;;;;;;4976480;28;20205;-74
2023/04/10 04:35:55;;;;;;;22.30;13.17;;;8.40;99.90;;;;;;4991945;28;20213;-79
2023/04/10 04:38:23;;;;;;;24.40;12.93;;;8.50;99.90;;;;;;4992055;28;20292;-77
2023/04/10 04:40:49;;;;;;;21.37;12.23;;;8.50;99.90;;;;;;4966212;28;20244;-79
2023/04/10 04:43:17;;;;;;;19.80;11.83;;;8.50;99.90;;;;;;4956414;28;20677;-81
2023/04/10 04:45:49;;;;;;;18.53;11.50;;;8.50;99.90;;;;;;4971014;28;20405;-77
2023/04/10 04:48:19;;;;;;;19.37;11.80;;;8.50;99.90;;;;;;4963884;28;20190;-81
2023/04/10 04:50:46;;;;;;;17.37;11.40;;;8.50;99.90;;;;;;4970183;28;20201;-81
2023/04/10 04:53:12;;;;;;;19.23;11.30;;;8.60;99.90;;;;;;4936997;29;20690;-80
2023/04/10 04:55:41;;;;;;;18.33;11.43;;;8.60;99.90;;;;;;4958780;28;20220;-81
2023/04/10 04:58:08;;;;;;;17.83;11.30;;;8.80;99.90;;;;;;4956711;28;20197;-81
2023/04/10 05:00:34;;;;;;;18.43;11.37;;;8.90;99.90;;;;;;4972458;28;20283;-78
2023/04/10 05:03:01;;;;;;;19.30;10.73;;;8.90;99.90;;;;;;4956552;28;20324;-78
2023/04/10 05:05:29;;;;;;;17.27;10.87;;;8.80;99.90;;;;;;4956093;28;20205;-76
2023/04/10 05:07:55;;;;;;;17.90;10.40;;;8.90;99.90;;;;;;5645380;23;20328;-77
2023/04/10 05:10:22;;;;;;;29.30;11.77;;;8.90;99.90;;;;;;4984307;28;20213;-77
2023/04/10 05:12:50;;;;;;;15.57;9.83;;;9.00;99.90;;;;;;4991521;28;20207;-77
2023/04/10 05:15:38;;;;;;;21.00;10.77;;;9.10;99.90;;;;;;4975965;28;20706;-75
2023/04/10 05:18:08;;;;;;;15.07;9.43;;;9.10;99.90;;;;;;4955915;28;20237;-74
2023/04/10 05:20:35;;;;;;;16.67;10.17;;;9.20;99.90;;;;;;4980211;23;20243;-74
2023/04/10 05:23:02;;;;;;;15.37;9.70;;;9.30;99.90;;;;;;4971069;28;20217;-74
2023/04/10 05:25:29;;;;;;;17.70;10.40;;;9.30;99.90;;;;;;4936881;29;20570;-76
2023/04/10 05:30:23;;;;;;;15.67;9.77;;;9.40;99.90;;;;;;4958985;23;20230;-78
2023/04/10 05:32:50;;;;;;;17.07;10.23;;;9.50;99.90;;;;;;4972023;28;20205;-76
2023/04/10 05:35:17;;;;;;;15.90;9.60;;;9.60;99.90;;;;;;4955596;28;20228;-77
2023/04/10 05:37:44;;;;;;;13.53;9.20;;;9.60;99.90;;;;;;4971410;28;20201;-77
2023/04/10 05:40:11;;;;;;;14.97;9.50;;;9.70;99.90;;;;;;4970419;28;20345;-75
2023/04/10 05:42:38;;;;;;;14.20;9.40;;;9.70;99.90;;;;;;4971888;28;20200;-76
2023/04/10 05:45:05;;;;;;;16.50;9.67;;;9.70;99.90;;;;;;4962119;28;20675;-77
2023/04/10 05:47:32;;;;;;;14.00;9.83;;;9.70;99.90;;;;;;4953191;28;20281;-79
2023/04/10 05:50:00;;;;;;;15.23;9.77;;;9.80;99.90;;;;;;4953628;28;20190;-80
2023/04/10 05:52:26;;;;;;;15.00;9.77;;;9.90;99.90;;;;;;4951296;28;20217;-79
2023/04/10 05:54:53;;;;;;;14.37;10.10;;;9.90;99.90;;;;;;4951994;29;20210;-79
2023/04/10 05:57:20;;;;;;;13.73;9.40;;;10.00;99.90;;;;;;4953391;28;20208;-79
2023/04/10 05:59:47;;;;;;;15.07;9.70;;;9.90;99.90;;;;;;4952313;29;20198;-81
2023/04/10 06:02:15;;;;;;;17.37;10.67;;;10.00;99.90;;;;;;4952392;29;20568;-79
2023/04/10 06:04:42;;;;;;;15.33;10.50;;;10.00;99.90;;;;;;4952140;29;20288;-77
2023/04/10 06:07:09;;;;;;;16.47;11.23;;;9.90;99.90;;;;;;4950508;28;20198;-78
2023/04/10 06:09:36;;;;;;;17.80;11.57;;;9.90;99.90;;;;;;4953332;28;20246;-78
2023/04/10 06:12:03;;;;;;;20.07;12.23;;;10.00;99.90;;;;;;4953350;28;20202;-78
2023/04/10 06:14:30;;;;;;;18.63;11.80;;;10.10;99.90;;;;;;4953199;28;20250;-79
2023/04/10 06:16:57;;;;;;;21.47;11.87;;;10.20;99.90;;;;;;4952323;29;20201;-77
2023/04/10 06:19:23;;;;;;;22.17;12.67;;;10.30;99.90;;;;;;4953469;28;20546;-77
2023/04/10 06:21:54;;;;;;;18.40;11.97;;;10.40;99.90;;;;;;4952027;29;20221;-77
2023/04/10 06:24:21;;;;;;;17.97;11.87;;;10.50;99.90;;;;;;4951809;28;20218;-77
2023/04/10 06:26:48;;;;;;;16.30;11.33;;;10.60;99.90;;;;;;4954151;28;20212;-77
2023/04/10 06:29:15;;;;;;;19.10;11.73;;;10.70;99.90;;;;;;4957349;28;20297;-75
2023/04/10 06:31:43;;;;;;;17.47;10.80;;;10.70;99.90;;;;;;4955973;29;20208;-72
2023/04/10 06:34:10;;;;;;;15.33;10.53;;;10.70;99.90;;;;;;4955656;29;20195;-79
2023/04/10 06:36:37;;;;;;;14.47;9.83;;;10.80;99.90;;;;;;4956748;28;20233;-81
2023/04/10 06:39:05;;;;;;;17.20;10.17;;;10.80;99.90;;;;;;4957023;28;20195;-77
2023/04/10 06:41:32;;;;;;;14.40;9.80;;;11.00;99.90;;;;;;4955573;29;20194;-79
2023/04/10 06:44:02;;;;;;;16.30;9.83;;;11.00;99.90;;;;;;4956408;29;20185;-77
2023/04/10 06:46:29;;;;;;;18.23;10.30;;;11.10;99.90;;;;;;4955362;29;20206;-79
2023/04/10 06:48:56;;;;;;;16.90;10.07;;;11.20;99.90;;;;;;4957007;28;20196;-78
2023/04/10 06:51:23;;;;;;;17.90;9.77;;;11.30;99.90;;;;;;4954878;29;20206;-75
2023/04/10 06:53:50;;;;;;;13.63;9.27;;;11.40;99.90;;;;;;4955552;29;20212;-77
2023/04/10 06:56:17;;;;;;;15.43;9.90;;;11.50;99.90;;;;;;4957532;28;20218;-75
2023/04/10 06:58:44;;;;;;;17.20;10.10;;;11.60;99.90;;;;;;4956653;28;20198;-76
2023/04/10 07:01:10;;;;;;;14.93;9.93;;;11.70;99.90;;;;;;4955475;29;20272;-73
2023/04/10 07:03:37;;;;;;;15.87;9.67;;;11.70;99.90;;;;;;4956437;28;20195;-74
2023/04/10 07:06:05;;;;;;;29.47;11.97;;;11.80;99.90;;;;;;4955002;29;20208;-74
2023/04/10 07:08:32;;;;;;;17.33;10.07;;;11.90;99.90;;;;;;4954986;29;20194;-74
2023/04/10 07:10:59;;;;;;;13.47;9.10;;;12.00;99.90;;;;;;4955281;29;20209;-76
2023/04/10 07:13:26;;;;;;;15.50;8.57;;;12.10;99.90;;;;;;4954662;29;20556;-75
2023/04/10 07:15:53;;;;;;;15.23;9.17;;;12.10;99.90;;;;;;4955266;29;20238;-76
2023/04/10 07:18:21;;;;;;;13.03;8.60;;;12.20;99.90;;;;;;4954996;29;20202;-75
2023/04/10 07:20:49;;;;;;;12.70;8.30;;;12.30;99.90;;;;;;4954658;29;20210;-75
2023/04/10 07:23:18;;;;;;;12.03;7.40;;;12.40;99.90;;;;;;4955827;28;20210;-75
2023/04/10 07:25:45;;;;;;;11.03;7.53;;;12.40;99.90;;;;;;4956162;28;20209;-75
2023/04/10 07:28:12;;;;;;;15.23;8.40;;;12.50;99.90;;;;;;4954728;29;20198;-74
2023/04/10 07:30:39;;;;;;;13.90;8.47;;;12.60;99.90;;;;;;4954609;29;20195;-76
2023/04/10 07:33:06;;;;;;;13.80;8.10;;;12.80;99.90;;;;;;4956167;28;20290;-75
2023/04/10 07:35:33;;;;;;;14.57;8.30;;;12.80;99.90;;;;;;4954627;29;20222;-74
2023/04/10 07:38:00;;;;;;;13.00;8.87;;;12.90;99.90;;;;;;4954542;28;20268;-77
2023/04/10 07:40:27;;;;;;;16.97;7.77;;;13.00;99.90;;;;;;4956362;28;20200;-81
2023/04/10 07:42:54;;;;;;;13.93;8.70;;;13.10;99.90;;;;;;4971033;28;20198;-80
2023/04/10 07:45:21;;;;;;;16.23;9.07;;;13.10;99.90;;;;;;4955952;29;20194;-80
2023/04/10 07:47:48;;;;;;;13.97;8.77;;;13.20;99.90;;;;;;4954872;29;20251;-79
2023/04/10 07:50:15;;;;;;;13.37;8.53;;;13.20;99.90;;;;;;4954892;29;20198;-80
2023/04/10 07:52:42;;;;;;;13.50;8.60;;;13.30;99.90;;;;;;4972034;28;20241;-79
2023/04/10 07:55:09;;;;;;;14.70;9.40;;;13.30;99.90;;;;;;4939624;29;20206;-80
2023/04/10 07:57:36;;;;;;;14.10;9.40;;;13.40;99.90;;;;;;4956110;28;20722;-81
2023/04/10 08:00:03;;;;;;;17.33;9.57;;;13.30;99.90;;;;;;4954911;29;20653;-81
2023/04/10 08:02:30;;;;;;;13.53;8.63;;;13.40;99.90;;;;;;4970903;28;20288;-80
2023/04/10 08:04:57;;;;;;;13.00;8.77;;;13.50;99.90;;;;;;4955454;28;20202;-81
2023/04/10 08:07:24;;;;;;;12.47;8.77;;;13.60;99.90;;;;;;4970166;28;20213;-77
2023/04/10 08:09:51;;;;;;;13.50;8.43;;;13.70;99.90;;;;;;4954152;29;20213;-79
2023/04/10 08:12:18;;;;;;;17.37;9.30;;;13.90;99.90;;;;;;4955407;28;20200;-79
2023/04/10 08:14:50;;;;;;;13.57;8.83;;;14.10;99.90;;;;;;4953997;29;20200;-78
2023/04/10 08:17:17;;;;;;;22.53;10.90;;;14.40;99.90;;;;;;4953682;29;20206;-77
2023/04/10 08:19:44;;;;;;;18.17;9.47;;;14.60;99.90;;;;;;4955637;28;20194;-76
2023/04/10 08:22:14;;;;;;;16.57;10.30;;;14.70;99.90;;;;;;4954508;29;20193;-76
2023/04/10 08:24:41;;;;;;;16.40;9.93;;;15.00;99.90;;;;;;4954239;28;20226;-76
2023/04/10 08:27:08;;;;;;;16.83;9.63;;;15.30;99.90;;;;;;4954271;29;20202;-78
2023/04/10 08:29:34;;;;;;;16.13;9.40;;;15.90;99.90;;;;;;4955888;28;20234;-78
2023/04/10 08:32:01;;;;;;;13.47;8.60;;;16.90;99.90;;;;;;4953836;29;20202;-79
2023/04/10 08:34:29;;;;;;;17.47;8.67;;;17.70;99.90;;;;;;4970005;28;20206;-77
2023/04/10 08:36:56;;;;;;;11.93;6.73;;;18.40;99.90;;;;;;4953832;29;20226;-81
2023/04/10 08:39:38;;;;;;;13.33;6.57;;;18.70;99.90;;;;;;4955668;28;20214;-84
2023/04/10 08:42:06;;;;;;;12.60;6.40;;;18.90;99.90;;;;;;4970075;28;20190;-78
2023/04/10 08:44:35;;;;;;;9.97;5.90;;;18.90;99.90;;;;;;4968886;28;20198;-78
2023/04/10 08:47:04;;;;;;;8.33;5.80;;;19.30;99.90;;;;;;4953347;29;20245;-78
2023/04/10 08:49:38;;;;;;;9.23;5.87;;;19.80;99.90;;;;;;4954161;28;20197;-80
2023/04/10 08:52:08;;;;;;;12.17;5.80;;;20.00;99.90;;;;;;4953695;29;20222;-80
2023/04/10 08:54:40;;;;;;;9.20;5.50;;;19.70;99.90;;;;;;4969705;28;20210;-80
2023/04/10 08:57:07;;;;;;;10.60;5.60;;;19.80;99.90;;;;;;4953016;29;20222;-80
2023/04/10 08:59:36;;;;;;;12.27;6.13;;;20.00;99.90;;;;;;4953075;29;20293;-77
2023/04/10 09:02:08;;;;;;;8.67;5.10;;;19.70;99.90;;;;;;4969071;28;20203;-79
2023/04/10 09:04:35;;;;;;;8.77;5.17;;;19.90;99.90;;;;;;4954272;28;20618;-79
2023/04/10 09:07:02;;;;;;;12.43;5.67;;;20.00;99.90;;;;;;4968838;28;20206;-77
2023/04/10 09:09:33;;;;;;;9.40;5.27;;;20.20;99.90;;;;;;4952623;29;20563;-77
2023/04/10 09:12:02;;;;;;;9.20;4.97;;;20.50;99.90;;;;;;4953012;29;20213;-78
2023/04/10 09:14:31;;;;;;;8.23;5.13;;;20.60;99.90;;;;;;4952879;28;20656;-80
2023/04/10 09:17:32;;;;;;;8.90;4.77;;;20.90;99.90;;;;;;4968874;28;20688;-77
2023/04/10 09:19:59;;;;;;;6.63;5.10;;;21.00;99.90;;;;;;4953014;29;20202;-77
2023/04/10 09:22:34;;;;;;;9.00;4.90;;;21.10;99.90;;;;;;4953666;28;20265;-76
2023/04/10 09:25:03;;;;;;;6.70;4.63;;;21.40;99.90;;;;;;4954418;28;20247;-76
2023/04/10 09:27:36;;;;;;;9.47;5.37;;;21.40;99.90;;;;;;4952684;29;20561;-78
2023/04/10 09:30:07;;;;;;;6.67;4.60;;;21.70;99.90;;;;;;4952457;28;20234;-76
2023/04/10 09:32:45;;;;;;;6.60;4.60;;;21.80;99.90;;;;;;4954275;28;20557;-75
2023/04/10 09:35:13;;;;;;;6.20;4.30;;;22.10;99.90;;;;;;4968726;28;20632;-76
2023/04/10 09:37:46;;;;;;;9.50;4.45;;;22.50;99.90;;;;;;4974350;28;20723;-75
2023/04/10 09:40:24;;;;;;;7.47;4.47;;;22.90;98.70;;;;;;4953237;29;20202;-74
2023/04/10 09:42:52;;;;;;;6.82;4.22;;;23.20;96.50;;;;;;4952333;29;20224;-75
2023/04/10 09:45:21;;;;;;;7.45;4.00;;;23.30;93.30;;;;;;4968722;28;20212;-74
2023/04/10 09:48:05;;;;;;;6.40;3.60;;;23.30;93.80;;;;;;4953252;28;20240;-75
2023/04/10 09:50:37;;;;;;;5.28;3.85;;;23.70;92.60;;;;;;4952552;29;20656;-76
2023/04/10 09:53:08;;;;;;;5.20;3.60;;;23.40;90.40;;;;;;4954205;28;20277;-77
2023/04/10 09:55:38;;;;;;;5.28;3.75;;;23.70;89.50;;;;;;4968432;28;20523;-75
2023/04/10 09:58:06;;;;;;;5.85;3.92;;;23.90;90.20;;;;;;4952353;29;20265;-77
2023/04/10 10:00:40;;;;;;;4.40;3.70;;;23.80;86.50;;;;;;4954562;28;20191;-77
2023/04/10 10:03:10;;;;;;;6.13;3.92;;;24.00;86.30;;;;;;4972423;28;20674;-78
2023/04/10 10:05:46;;;;;;;5.28;3.40;;;24.30;85.90;;;;;;4972751;28;20261;-78
2023/04/10 10:08:14;;;;;;;5.85;3.85;;;24.50;83.70;;;;;;4957232;28;20197;-74
2023/04/10 10:10:53;;;;;;;6.60;3.95;;;24.50;81.90;;;;;;4956427;29;20202;-73
2023/04/10 10:13:27;;;;;;;6.55;3.75;;;24.70;83.90;;;;;;4956303;29;20208;-74
2023/04/10 10:16:17;;;;;;;7.05;3.40;;;25.20;80.50;;;;;;4972213;28;20209;-74
2023/04/10 10:19:16;;;;;;;6.53;4.03;;;25.30;77.90;;;;;;4955961;29;20195;-73
2023/04/10 10:21:44;;;;;;;8.52;4.28;;;25.20;77.60;;;;;;4950958;29;20213;-75
2023/04/10 10:24:12;;;;;;;6.57;4.15;;;25.60;76.50;;;;;;4957376;28;20589;-73
2023/04/10 10:26:40;;;;;;;6.68;4.47;;;25.60;75.80;;;;;;4971036;28;20217;-74
2023/04/10 10:29:12;;;;;;;7.07;3.95;;;25.80;74.60;;;;;;4956968;28;20817;-75
2023/04/10 10:31:40;;;;;;;7.13;4.07;;;25.90;73.60;;;;;;4955851;29;20182;-80
2023/04/10 10:34:10;;;;;;;5.18;3.80;;;25.90;72.80;;;;;;4957259;28;20257;-77
2023/04/10 10:36:40;;;;;;;6.13;3.95;;;26.10;71.10;;;;;;4972077;28;20570;-74
2023/04/10 10:39:34;;;;;;;6.85;4.10;;;25.70;69.30;;;;;;4971828;28;20198;-76
2023/04/10 10:42:17;;;;;;;5.35;3.97;;;25.10;71.00;;;;;;4957653;28;20204;-79
2023/04/10 10:44:59;;;;;;;5.72;4.38;;;24.70;73.00;;;;;;4957173;28;20206;-85
2023/04/10 10:47:29;;;;;;;10.25;4.22;;;24.10;73.50;;;;;;4958746;28;20194;-77
2023/04/10 10:50:01;;;;;;;7.45;4.25;;;24.30;77.20;;;;;;4956471;29;20597;-77
2023/04/10 10:52:56;;;;;;;5.93;3.85;;;24.30;75.70;;;;;;4956269;29;20198;-77
2023/04/10 10:55:30;;;;;;;6.55;4.57;;;23.90;75.80;;;;;;4956417;28;20205;-76
2023/04/10 10:58:00;;;;;;;6.68;4.20;;;23.50;76.10;;;;;;4955296;29;20225;-76
2023/04/10 11:00:50;;;;;;;9.50;4.50;;;23.50;78.30;;;;;;4956805;28;20225;-75
2023/04/10 11:03:17;;;;;;;6.38;4.50;;;24.00;77.10;;;;;;4949371;29;20253;-77
2023/04/10 11:05:55;;;;;;;7.10;4.07;;;24.50;74.80;;;;;;4956404;28;20253;-75
2023/04/10 11:08:39;;;;;;;6.93;4.00;;;24.80;72.20;;;;;;4954920;29;20296;-73
2023/04/10 11:11:08;;;;;;;8.38;4.03;;;25.20;71.60;;;;;;4956230;28;20652;-72
2023/04/10 11:13:37;;;;;;;6.68;4.03;;;26.00;72.50;;;;;;4970891;28;20202;-73
2023/04/10 11:16:06;;;;;;;5.85;3.72;;;26.60;67.20;;;;;;4954978;28;20545;-73
2023/04/10 11:18:45;;;;;;;8.30;3.60;;;27.30;64.70;;;;;;4954313;29;20202;-71
2023/04/10 11:21:22;;;;;;;7.82;3.80;;;27.40;64.40;;;;;;4954920;29;20213;-71
2023/04/10 11:23:49;;;;;;;5.43;3.30;;;27.50;61.10;;;;;;4955896;28;20652;-70
2023/04/10 11:26:35;;;;;;;4.75;3.22;;;27.80;61.30;;;;;;4955878;28;20190;-70
2023/04/10 11:29:02;;;;;;;4.55;3.13;;;27.70;58.40;;;;;;4954569;29;20237;-71
2023/04/10 11:31:30;;;;;;;5.50;3.10;;;28.00;59.50;;;;;;4954597;29;20202;-72
2023/04/10 11:34:09;;;;;;;5.15;3.30;;;28.70;58.70;;;;;;4954424;29;20198;-73
2023/04/10 11:36:41;;;;;;;6.18;3.08;;;29.00;57.30;;;;;;4955975;28;20716;-71
2023/04/10 11:39:12;;;;;;;3.95;2.90;;;29.60;54.70;;;;;;4954374;29;20198;-72
2023/04/10 11:41:43;;;;;;;4.25;2.97;;;28.40;53.60;;;;;;4954979;29;20213;-72
2023/04/10 11:44:15;;;;;;;4.55;3.20;;;27.30;56.30;;;;;;4954741;29;20190;-73
2023/04/10 11:46:46;;;;;;;4.93;2.80;;;27.70;58.00;;;;;;4954262;29;20208;-72
2023/04/10 11:49:25;;;;;;;5.53;3.30;;;28.10;56.10;;;;;;4954102;29;20304;-73
2023/04/10 11:51:52;;;;;;;3.88;2.90;;;28.90;54.60;;;;;;4955745;28;20212;-70
2023/04/10 11:54:20;;;;;;;4.65;2.80;;;30.20;52.80;;;;;;4955739;28;20205;-73
2023/04/10 11:57:05;;;;;;;10.40;2.90;;;30.50;51.30;;;;;;4953771;29;20218;-70
2023/04/10 11:59:32;;;;;;;5.50;3.08;;;31.10;50.40;;;;;;4955042;28;20711;-72
2023/04/10 12:02:08;;;;;;;8.45;3.22;;;30.40;49.50;;;;;;4953989;29;20202;-68
2023/04/10 12:04:39;;;;;;;4.43;2.72;;;28.40;52.00;;;;;;4938609;29;20194;-81
2023/04/10 12:07:09;;;;;;;3.88;3.03;;;27.80;57.30;;;;;;4954677;29;20620;-75
2023/04/10 12:09:37;;;;;;;5.15;2.70;;;27.60;57.50;;;;;;4955641;28;20607;-77
2023/04/10 12:12:06;;;;;;;6.75;2.97;;;27.80;58.60;;;;;;4954157;29;20218;-76
2023/04/10 12:14:38;;;;;;;4.03;2.90;;;27.60;59.00;;;;;;4954139;29;20195;-75
2023/04/10 12:17:10;;;;;;;3.80;2.90;;;27.60;58.70;;;;;;4955849;28;20226;-72
2023/04/10 12:19:38;;;;;;;4.80;2.95;;;27.40;60.50;;;;;;4955390;28;20197;-81
2023/04/10 12:22:06;;;;;;;5.90;3.10;;;27.20;61.70;;;;;;4956548;29;20230;-83
2023/04/10 12:24:42;;;;;;;4.88;3.28;;;27.00;61.50;;;;;;4966450;28;20278;-82
2023/04/10 12:27:24;;;;;;;7.72;3.25;;;26.70;62.10;;;;;;4958457;29;20206;-79
2023/04/10 12:29:53;;;;;;;4.90;3.42;;;26.10;63.30;;;;;;4955909;28;20254;-70
2023/04/10 12:32:21;;;;;;;6.18;3.20;;;25.20;66.20;;;;;;4956103;29;20213;-80
2023/04/10 12:34:55;;;;;;;4.30;3.20;;;24.80;72.10;;;;;;4954682;29;20206;-84
2023/04/10 12:37:44;;;;;;;4.05;3.00;;;24.60;73.80;;;;;;4953550;29;20271;-75
2023/04/10 12:40:12;;;;;;;7.35;3.33;;;24.80;73.20;;;;;;4953321;29;20209;-73
2023/04/10 12:42:43;;;;;;;5.32;3.28;;;25.10;72.60;;;;;;4954324;29;20206;-77
2023/04/10 12:48:27;;;;;;;4.07;2.90;;;24.40;72.40;;;;;;4903856;29;20203;-78
2023/04/10 12:50:57;;;;;;;7.25;3.30;;;23.50;74.20;;;;;;4915596;29;20209;-77
2023/04/10 12:53:25;;;;;;;6.15;3.20;;;23.00;77.30;;;;;;4915669;29;20214;-78
2023/04/10 12:55:59;;;;;;;6.00;3.20;;;22.70;81.00;;;;;;4914909;29;20204;-78
2023/04/10 12:58:27;;;;;;;7.63;3.40;;;22.40;80.00;;;;;;4916109;29;20279;-77
2023/04/10 13:00:55;;;;;;;7.93;3.35;;;22.60;78.90;;;;;;4914774;29;20207;-77
2023/04/10 13:03:22;;;;;;;4.07;3.00;;;23.20;79.90;;;;;;4915363;29;20259;-78
2023/04/10 13:05:51;;;;;;;5.20;3.30;;;23.90;74.60;;;;;;4914719;29;20210;-77